createdAt,value
2022-08-09T00:00:04.808Z,32.55
2022-08-09T00:01:00.940Z,32.35
2022-08-09T00:02:00.693Z,32.55
2022-08-09T00:03:00.666Z,32.26
2022-08-09T00:04:10.335Z,32.26
2022-08-09T00:05:02.882Z,32.45
2022-08-09T00:06:19.038Z,32.45
2022-08-09T00:07:00.667Z,32.45
2022-08-09T00:08:01.414Z,32.35
2022-08-09T00:09:00.669Z,32.17
2022-08-09T00:10:00.671Z,32.45
2022-08-09T00:11:00.675Z,32.26
2022-08-09T00:12:03.951Z,32.45
2022-08-09T00:13:00.671Z,32.26
2022-08-09T00:14:00.673Z,32.35
2022-08-09T00:15:06.506Z,32.35
2022-08-09T00:16:02.894Z,32.45
2022-08-09T00:17:00.675Z,32.35
2022-08-09T00:18:05.367Z,32.35
2022-08-09T00:19:00.677Z,32.45
2022-08-09T00:20:00.675Z,32.45
2022-08-09T00:21:00.676Z,32.26
2022-08-09T00:22:00.675Z,32.26
2022-08-09T00:23:53.922Z,32.26
2022-08-09T00:24:00.685Z,32.45
2022-08-09T00:25:00.679Z,32.35
2022-08-09T00:26:00.683Z,32.35
2022-08-09T00:27:00.688Z,32.26
2022-08-09T00:28:00.680Z,32.35
2022-08-09T00:29:00.684Z,32.45
2022-08-09T00:30:24.421Z,32.45
2022-08-09T00:31:00.683Z,32.35
2022-08-09T00:32:01.087Z,32.26
2022-08-09T00:33:00.684Z,32.35
2022-08-09T00:34:00.683Z,32.26
2022-08-09T00:35:00.685Z,32.26
2022-08-09T00:36:00.686Z,32.45
2022-08-09T00:37:00.687Z,32.26
2022-08-09T00:38:00.689Z,32.45
2022-08-09T00:39:00.691Z,32.45
2022-08-09T00:40:13.770Z,32.45
2022-08-09T00:41:00.757Z,32.35
2022-08-09T00:44:10.643Z,32.45
2022-08-09T00:44:16.634Z,32.35
2022-08-09T00:44:19.480Z,32.45
2022-08-09T00:45:03.836Z,32.26
2022-08-09T00:46:00.691Z,32.55
2022-08-09T00:47:04.465Z,32.65
2022-08-09T00:48:00.694Z,32.55
2022-08-09T00:49:00.877Z,32.35
2022-08-09T00:50:00.694Z,32.35
2022-08-09T00:51:00.696Z,32.45
2022-08-09T00:52:05.224Z,32.45
2022-08-09T00:53:00.698Z,32.45
2022-08-09T00:54:00.699Z,32.75
2022-08-09T00:55:01.216Z,32.45
2022-08-09T00:56:04.642Z,32.35
2022-08-09T00:57:00.699Z,32.26
2022-08-09T00:58:00.706Z,32.35
2022-08-09T00:59:00.701Z,32.55
2022-08-09T01:00:02.961Z,32.26
2022-08-09T01:01:00.790Z,32.35
2022-08-09T01:02:00.832Z,32.45
2022-08-09T01:03:00.703Z,32.45
2022-08-09T01:04:00.704Z,32.55
2022-08-09T01:05:00.704Z,32.45
2022-08-09T01:06:03.933Z,32.35
2022-08-09T01:07:00.706Z,32.26
2022-08-09T01:08:01.724Z,32.45
2022-08-09T01:09:00.707Z,32.45
2022-08-09T01:10:00.706Z,32.55
2022-08-09T01:11:00.709Z,32.45
2022-08-09T01:12:00.708Z,32.45
2022-08-09T01:13:00.708Z,32.45
2022-08-09T01:14:01.989Z,32.35
2022-08-09T01:15:01.013Z,32.35
2022-08-09T01:16:00.709Z,32.44
2022-08-09T01:17:00.712Z,32.26
2022-08-09T01:18:00.712Z,32.26
2022-08-09T01:19:02.663Z,32.24
2022-08-09T01:20:02.670Z,32.26
2022-08-09T01:21:00.735Z,32.24
2022-08-09T01:22:00.714Z,32.44
2022-08-09T01:23:00.715Z,32.45
2022-08-09T01:24:05.027Z,32.24
2022-08-09T01:25:00.911Z,32.35
2022-08-09T01:26:00.715Z,32.35
2022-08-09T01:27:00.719Z,32.55
2022-08-09T01:28:00.719Z,32.26
2022-08-09T01:29:00.718Z,32.45
2022-08-09T01:30:00.808Z,32.35
2022-08-09T01:31:00.723Z,32.45
2022-08-09T01:32:31.362Z,32.24
2022-08-09T01:33:00.721Z,32.26
2022-08-09T01:34:00.722Z,32.26
2022-08-09T01:35:00.727Z,32.24
2022-08-09T01:36:00.723Z,32.24
2022-08-09T01:37:00.722Z,32.26
2022-08-09T01:38:00.734Z,32.26
2022-08-09T01:39:00.725Z,32.26
2022-08-09T01:40:00.778Z,32.26
2022-08-09T01:41:05.428Z,32.35
2022-08-09T01:42:04.079Z,32.34
2022-08-09T01:43:00.727Z,32.26
2022-08-09T01:44:00.726Z,32.26
2022-08-09T01:45:00.730Z,32.45
2022-08-09T01:46:00.728Z,32.54
2022-08-09T01:47:00.734Z,32.45
2022-08-09T01:48:00.730Z,32.24
2022-08-09T01:49:09.408Z,32.55
2022-08-09T01:50:00.730Z,32.24
2022-08-09T01:51:00.733Z,32.26
2022-08-09T01:52:07.265Z,32.24
2022-08-09T01:53:00.732Z,32.55
2022-08-09T01:54:00.732Z,32.45
2022-08-09T01:55:00.735Z,32.17
2022-08-09T01:56:00.734Z,32.45
2022-08-09T01:57:04.203Z,32.35
2022-08-09T01:58:00.735Z,32.24
2022-08-09T01:59:00.737Z,32.26
2022-08-09T02:00:19.365Z,32.45
2022-08-09T02:01:00.765Z,32.17
2022-08-09T02:02:01.301Z,32.17
2022-08-09T02:03:00.738Z,32.15
2022-08-09T02:04:00.739Z,32.45
2022-08-09T02:05:04.658Z,32.55
2022-08-09T02:06:04.199Z,32.45
2022-08-09T02:07:02.574Z,32.55
2022-08-09T02:08:40.098Z,32.45
2022-08-09T02:09:00.765Z,32.45
2022-08-09T02:10:01.381Z,32.45
2022-08-09T02:11:00.743Z,32.34
2022-08-09T02:12:00.743Z,32.35
2022-08-09T02:13:00.745Z,32.65
2022-08-09T02:14:07.173Z,32.35
2022-08-09T02:15:00.747Z,32.54
2022-08-09T02:16:00.745Z,32.55
2022-08-09T02:17:15.435Z,32.55
2022-08-09T02:18:10.538Z,32.45
2022-08-09T02:19:00.747Z,32.26
2022-08-09T02:20:01.192Z,32.34
2022-08-09T02:21:00.748Z,32.26
2022-08-09T02:22:00.751Z,32.26
2022-08-09T02:23:00.751Z,32.26
2022-08-09T02:24:01.888Z,32.26
2022-08-09T02:25:00.751Z,32.26
2022-08-09T02:26:00.750Z,32.26
2022-08-09T02:27:00.752Z,32.26
2022-08-09T02:28:03.704Z,32.07
2022-08-09T02:29:00.755Z,32.26
2022-08-09T02:30:01.737Z,32.26
2022-08-09T02:31:00.756Z,32.07
2022-08-09T02:32:00.754Z,32.17
2022-08-09T02:33:00.757Z,31.97
2022-08-09T02:34:13.154Z,32.15
2022-08-09T02:35:00.757Z,31.97
2022-08-09T02:36:03.295Z,31.97
2022-08-09T02:37:00.758Z,32.17
2022-08-09T02:38:00.758Z,32.07
2022-08-09T02:39:00.760Z,32.26
2022-08-09T02:40:01.290Z,32.05
2022-08-09T02:41:00.761Z,32.35
2022-08-09T02:42:00.760Z,32.34
2022-08-09T02:43:00.761Z,32.05
2022-08-09T02:44:00.762Z,32.26
2022-08-09T02:45:00.764Z,32.26
2022-08-09T02:46:00.761Z,32.34
2022-08-09T02:47:00.763Z,32.35
2022-08-09T02:48:00.764Z,32.35
2022-08-09T02:49:00.765Z,32.44
2022-08-09T02:50:01.790Z,32.35
2022-08-09T02:51:01.676Z,32.34
2022-08-09T02:52:00.767Z,32.26
2022-08-09T02:53:00.766Z,32.34
2022-08-09T02:54:01.657Z,32.05
2022-08-09T02:55:03.267Z,32.26
2022-08-09T02:56:01.151Z,32.26
2022-08-09T02:57:00.769Z,32.15
2022-08-09T02:58:36.039Z,32.07
2022-08-09T02:59:00.771Z,32.05
2022-08-09T03:00:21.079Z,32.26
2022-08-09T03:01:04.427Z,32.17
2022-08-09T03:02:06.753Z,32.35
2022-08-09T03:03:00.877Z,32.17
2022-08-09T03:04:17.805Z,32.17
2022-08-09T03:05:00.830Z,32.26
2022-08-09T03:06:00.773Z,32.34
2022-08-09T03:07:13.991Z,32.26
2022-08-09T03:08:00.774Z,32.24
2022-08-09T03:09:00.776Z,32.34
2022-08-09T03:10:00.776Z,32.07
2022-08-09T03:11:00.927Z,32.05
2022-08-09T03:12:05.591Z,31.95
2022-08-09T03:13:00.780Z,32.07
2022-08-09T03:14:01.759Z,31.77
2022-08-09T03:15:00.784Z,31.77
2022-08-09T03:16:06.808Z,31.77
2022-08-09T03:17:01.741Z,31.85
2022-08-09T03:18:00.781Z,31.87
2022-08-09T03:19:01.861Z,31.77
2022-08-09T03:20:02.949Z,31.77
2022-08-09T03:21:00.784Z,31.85
2022-08-09T03:22:03.382Z,31.77
2022-08-09T03:23:14.522Z,31.77
2022-08-09T03:24:03.986Z,31.66
2022-08-09T03:25:22.017Z,31.68
2022-08-09T03:26:03.539Z,31.68
2022-08-09T03:27:00.788Z,31.77
2022-08-09T03:28:00.790Z,31.77
2022-08-09T03:29:00.788Z,31.66
2022-08-09T03:30:01.482Z,31.68
2022-08-09T03:31:10.203Z,31.68
2022-08-09T03:32:00.936Z,31.68
2022-08-09T03:33:00.789Z,31.87
2022-08-09T03:34:00.789Z,31.77
2022-08-09T03:35:00.792Z,31.87
2022-08-09T03:36:16.011Z,31.77
2022-08-09T03:37:02.500Z,31.68
2022-08-09T03:38:00.793Z,31.77
2022-08-09T03:39:00.793Z,31.66
2022-08-09T03:40:00.916Z,31.68
2022-08-09T03:41:00.793Z,31.58
2022-08-09T03:42:06.136Z,31.66
2022-08-09T03:43:00.796Z,31.77
2022-08-09T03:44:07.733Z,31.66
2022-08-09T03:45:00.797Z,31.47
2022-08-09T03:46:05.019Z,31.58
2022-08-09T03:47:00.800Z,31.57
2022-08-09T03:48:00.798Z,31.48
2022-08-09T03:49:03.900Z,31.48
2022-08-09T03:50:00.801Z,31.48
2022-08-09T03:51:00.802Z,31.48
2022-08-09T03:52:03.736Z,31.48
2022-08-09T03:53:00.800Z,31.48
2022-08-09T03:54:00.803Z,31.47
2022-08-09T03:55:00.802Z,31.57
2022-08-09T03:56:00.803Z,31.48
2022-08-09T03:57:00.806Z,31.48
2022-08-09T03:58:09.853Z,31.58
2022-08-09T03:59:00.805Z,31.48
2022-08-09T04:00:01.443Z,31.48
2022-08-09T04:01:00.805Z,31.48
2022-08-09T04:02:00.807Z,31.37
2022-08-09T04:03:00.811Z,31.27
2022-08-09T04:04:03.915Z,31.48
2022-08-09T04:05:05.968Z,31.38
2022-08-09T04:06:00.811Z,31.37
2022-08-09T04:07:00.811Z,31.38
2022-08-09T04:08:00.811Z,31.29
2022-08-09T04:09:00.810Z,31.47
2022-08-09T04:10:00.812Z,31.48
2022-08-09T04:11:01.739Z,31.48
2022-08-09T04:12:00.813Z,31.37
2022-08-09T04:13:03.816Z,31.27
2022-08-09T04:14:54.289Z,31.38
2022-08-09T04:15:17.187Z,31.57
2022-08-09T04:16:19.591Z,31.58
2022-08-09T04:17:00.817Z,31.18
2022-08-09T04:18:00.817Z,31.48
2022-08-09T04:19:00.817Z,31.29
2022-08-09T04:20:02.772Z,31.29
2022-08-09T04:21:00.822Z,31.47
2022-08-09T04:22:00.819Z,31.47
2022-08-09T04:23:01.941Z,31.29
2022-08-09T04:24:00.820Z,31.48
2022-08-09T04:25:01.452Z,31.18
2022-08-09T04:26:00.822Z,31.58
2022-08-09T04:27:00.821Z,31.38
2022-08-09T04:28:02.415Z,31.57
2022-08-09T04:29:05.219Z,31.19
2022-08-09T04:30:00.825Z,31.29
2022-08-09T04:31:00.830Z,31.19
2022-08-09T04:32:00.826Z,31.27
2022-08-09T04:33:01.249Z,31.29
2022-08-09T04:34:00.827Z,31.27
2022-08-09T04:35:01.108Z,31.29
2022-08-09T04:36:00.828Z,31.38
2022-08-09T04:37:00.825Z,31.29
2022-08-09T04:38:03.629Z,31.38
2022-08-09T04:39:00.829Z,31.38
2022-08-09T04:40:00.830Z,31.48
2022-08-09T04:41:00.834Z,31.37
2022-08-09T04:42:02.545Z,31.29
2022-08-09T04:43:00.830Z,31.47
2022-08-09T04:44:05.718Z,31.48
2022-08-09T04:45:00.830Z,31.27
2022-08-09T04:46:01.162Z,31.47
2022-08-09T04:47:04.642Z,31.29
2022-08-09T04:48:02.197Z,31.27
2022-08-09T04:49:00.835Z,31.19
2022-08-09T04:50:00.834Z,31.37
2022-08-09T04:51:00.863Z,31.27
2022-08-09T04:52:00.837Z,31.19
2022-08-09T04:53:00.837Z,31.29
2022-08-09T04:54:00.836Z,31.27
2022-08-09T04:55:00.845Z,31.29
2022-08-09T04:56:00.840Z,31.29
2022-08-09T04:57:00.842Z,31.27
2022-08-09T04:58:01.812Z,31.27
2022-08-09T04:59:03.787Z,31.29
2022-08-09T05:00:00.841Z,31.29
2022-08-09T05:01:00.840Z,31.29
2022-08-09T05:02:02.941Z,31.29
2022-08-09T05:03:01.003Z,31.10
2022-08-09T05:04:00.891Z,31.27
2022-08-09T05:05:09.563Z,31.08
2022-08-09T05:06:06.714Z,31.29
2022-08-09T05:07:00.846Z,31.10
2022-08-09T05:08:00.845Z,31.29
2022-08-09T05:09:01.440Z,31.08
2022-08-09T05:10:02.227Z,31.29
2022-08-09T05:11:01.173Z,31.19
2022-08-09T05:12:00.851Z,31.10
2022-08-09T05:13:00.846Z,31.29
2022-08-09T05:14:00.852Z,31.19
2022-08-09T05:15:00.849Z,31.08
2022-08-09T05:16:00.850Z,31.18
2022-08-09T05:17:00.850Z,31.29
2022-08-09T05:18:38.483Z,31.29
2022-08-09T05:19:00.865Z,31.18
2022-08-09T05:20:00.855Z,31.18
2022-08-09T05:21:00.855Z,31.10
2022-08-09T05:22:00.854Z,31.19
2022-08-09T05:23:58.341Z,30.98
2022-08-09T05:24:02.518Z,31.08
2022-08-09T05:25:02.486Z,31.10
2022-08-09T05:26:00.856Z,31.10
2022-08-09T05:27:00.857Z,31.27
2022-08-09T05:28:00.857Z,31.10
2022-08-09T05:29:00.856Z,31.10
2022-08-09T05:30:00.858Z,31.19
2022-08-09T05:31:00.857Z,31.18
2022-08-09T05:32:00.861Z,31.08
2022-08-09T05:33:01.975Z,31.19
2022-08-09T05:34:00.863Z,31.27
2022-08-09T05:35:00.859Z,31.27
2022-08-09T05:36:00.862Z,31.10
2022-08-09T05:37:01.677Z,31.29
2022-08-09T05:38:00.862Z,31.08
2022-08-09T05:39:00.863Z,31.27
2022-08-09T05:40:00.972Z,31.10
2022-08-09T05:41:00.862Z,31.08
2022-08-09T05:42:01.312Z,31.27
2022-08-09T05:43:00.867Z,31.29
2022-08-09T05:44:00.870Z,31.37
2022-08-09T05:45:00.866Z,31.18
2022-08-09T05:46:00.868Z,31.29
2022-08-09T05:47:00.865Z,31.19
2022-08-09T05:48:01.478Z,31.29
2022-08-09T05:49:00.868Z,31.27
2022-08-09T05:50:28.137Z,31.27
2022-08-09T05:51:16.808Z,31.19
2022-08-09T05:52:00.870Z,31.29
2022-08-09T05:53:00.871Z,31.18
2022-08-09T05:54:00.874Z,31.27
2022-08-09T05:55:06.693Z,31.29
2022-08-09T05:56:01.674Z,31.29
2022-08-09T05:57:00.872Z,31.27
2022-08-09T05:58:00.874Z,31.19
2022-08-09T05:59:00.874Z,31.29
2022-08-09T06:00:00.878Z,31.38
2022-08-09T06:01:00.874Z,31.29
2022-08-09T06:02:00.877Z,30.88
2022-08-09T06:03:00.968Z,31.48
2022-08-09T06:04:00.951Z,31.29
2022-08-09T06:05:00.877Z,31.29
2022-08-09T06:06:05.966Z,31.38
2022-08-09T06:07:00.878Z,30.90
2022-08-09T06:08:05.240Z,31.37
2022-08-09T06:09:00.879Z,31.29
2022-08-09T06:10:02.030Z,31.38
2022-08-09T06:11:00.887Z,31.37
2022-08-09T06:12:00.883Z,31.29
2022-08-09T06:13:03.175Z,31.37
2022-08-09T06:14:00.887Z,31.37
2022-08-09T06:15:02.241Z,31.27
2022-08-09T06:16:00.886Z,31.19
2022-08-09T06:17:00.885Z,31.29
2022-08-09T06:18:00.887Z,31.18
2022-08-09T06:19:00.886Z,31.29
2022-08-09T06:20:00.887Z,31.08
2022-08-09T06:21:00.892Z,31.37
2022-08-09T06:22:00.889Z,31.38
2022-08-09T06:23:00.891Z,31.48
2022-08-09T06:24:02.267Z,31.37
2022-08-09T06:25:00.889Z,31.38
2022-08-09T06:26:01.339Z,31.37
2022-08-09T06:27:00.892Z,31.47
2022-08-09T06:28:00.892Z,31.47
2022-08-09T06:29:04.998Z,31.38
2022-08-09T06:30:09.709Z,31.38
2022-08-09T06:31:00.894Z,31.38
2022-08-09T06:32:09.010Z,31.48
2022-08-09T06:33:40.807Z,31.48
2022-08-09T06:34:00.897Z,31.37
2022-08-09T06:35:00.895Z,31.58
2022-08-09T06:36:00.897Z,31.47
2022-08-09T06:37:00.896Z,31.58
2022-08-09T06:38:05.889Z,31.58
2022-08-09T06:39:02.603Z,31.38
2022-08-09T06:40:02.665Z,31.48
2022-08-09T06:41:00.899Z,31.29
2022-08-09T06:42:09.244Z,31.58
2022-08-09T06:43:00.899Z,31.58
2022-08-09T06:44:00.903Z,31.58
2022-08-09T06:46:04.314Z,31.48
2022-08-09T06:46:06.626Z,31.47
2022-08-09T06:47:00.901Z,31.58
2022-08-09T06:48:01.646Z,31.48
2022-08-09T06:49:00.902Z,31.48
2022-08-09T06:50:14.248Z,31.58
2022-08-09T06:51:00.904Z,31.77
2022-08-09T06:52:00.906Z,31.48
2022-08-09T06:53:00.943Z,31.68
2022-08-09T06:54:01.230Z,31.48
2022-08-09T06:55:00.908Z,31.68
2022-08-09T06:56:00.909Z,31.48
2022-08-09T06:57:00.909Z,31.48
2022-08-09T06:58:02.483Z,31.77
2022-08-09T07:00:49.063Z,31.68
2022-08-09T07:00:54.212Z,31.68
2022-08-09T07:01:00.957Z,31.77
2022-08-09T07:02:04.401Z,31.48
2022-08-09T07:03:00.914Z,31.48
2022-08-09T07:04:04.074Z,31.68
2022-08-09T07:05:00.916Z,31.48
2022-08-09T07:06:04.142Z,31.48
2022-08-09T07:07:01.101Z,31.68
2022-08-09T07:08:01.916Z,31.58
2022-08-09T07:09:00.916Z,31.58
2022-08-09T07:10:14.039Z,31.68
2022-08-09T07:11:00.918Z,31.77
2022-08-09T07:12:00.919Z,31.58
2022-08-09T07:13:18.525Z,31.68
2022-08-09T07:14:05.407Z,31.68
2022-08-09T07:15:01.794Z,31.77
2022-08-09T07:16:40.325Z,31.77
2022-08-09T07:17:00.920Z,32.84
2022-08-09T07:18:02.481Z,32.35
2022-08-09T07:19:00.923Z,31.87
2022-08-09T07:20:00.925Z,31.48
2022-08-09T07:21:00.925Z,31.68
2022-08-09T07:22:00.925Z,31.77
2022-08-09T07:23:00.926Z,31.77
2022-08-09T07:24:00.928Z,31.77
2022-08-09T07:25:00.925Z,31.68
2022-08-09T07:26:02.874Z,31.77
2022-08-09T07:27:00.928Z,31.68
2022-08-09T07:28:00.929Z,31.77
2022-08-09T07:29:08.986Z,31.77
2022-08-09T07:30:00.929Z,32.17
2022-08-09T07:31:00.939Z,32.07
2022-08-09T07:32:00.954Z,31.58
2022-08-09T07:33:00.934Z,31.58
2022-08-09T07:34:00.934Z,31.87
2022-08-09T07:35:00.935Z,31.48
2022-08-09T07:36:00.936Z,31.87
2022-08-09T07:37:02.627Z,31.77
2022-08-09T07:38:00.935Z,31.77
2022-08-09T07:39:02.355Z,31.68
2022-08-09T07:40:01.000Z,31.77
2022-08-09T07:41:11.522Z,31.87
2022-08-09T07:42:00.938Z,31.77
2022-08-09T07:43:00.938Z,31.77
2022-08-09T07:44:00.941Z,31.58
2022-08-09T07:45:06.427Z,31.58
2022-08-09T07:46:03.049Z,31.48
2022-08-09T07:47:00.940Z,31.58
2022-08-09T07:48:04.750Z,31.58
2022-08-09T07:49:00.943Z,31.68
2022-08-09T07:50:08.190Z,31.77
2022-08-09T07:51:09.656Z,31.77
2022-08-09T07:52:05.843Z,31.68
2022-08-09T07:53:02.733Z,31.68
2022-08-09T07:54:07.528Z,31.58
2022-08-09T07:55:00.948Z,31.97
2022-08-09T07:56:03.386Z,31.97
2022-08-09T07:57:00.952Z,31.97
2022-08-09T07:58:00.949Z,32.35
2022-08-09T07:59:00.951Z,31.97
2022-08-09T08:00:03.014Z,31.77
2022-08-09T08:01:06.734Z,32.17
2022-08-09T08:02:01.087Z,32.07
2022-08-09T08:03:00.968Z,32.35
2022-08-09T08:04:00.954Z,32.26
2022-08-09T08:05:00.954Z,32.07
2022-08-09T08:06:00.953Z,32.26
2022-08-09T08:07:14.883Z,32.26
2022-08-09T08:09:00.089Z,32.35
2022-08-09T08:09:05.364Z,32.35
2022-08-09T08:10:08.648Z,32.45
2022-08-09T08:11:15.194Z,32.45
2022-08-09T08:12:10.475Z,32.26
2022-08-09T08:13:00.960Z,32.26
2022-08-09T08:14:00.963Z,32.26
2022-08-09T08:15:00.961Z,32.35
2022-08-09T08:16:00.962Z,32.35
2022-08-09T08:17:08.740Z,31.97
2022-08-09T08:18:00.962Z,32.17
2022-08-09T08:19:03.018Z,32.07
2022-08-09T08:20:00.963Z,32.17
2022-08-09T08:21:00.966Z,32.07
2022-08-09T08:22:00.965Z,32.07
2022-08-09T08:23:03.877Z,32.26
2022-08-09T08:24:12.047Z,32.35
2022-08-09T08:25:00.967Z,32.35
2022-08-09T08:26:06.600Z,32.35
2022-08-09T08:27:00.969Z,32.26
2022-08-09T08:28:00.970Z,32.17
2022-08-09T08:29:00.970Z,32.26
2022-08-09T08:30:04.362Z,32.55
2022-08-09T08:31:06.113Z,32.35
2022-08-09T08:32:03.434Z,32.45
2022-08-09T08:33:00.973Z,32.17
2022-08-09T08:34:00.972Z,32.35
2022-08-09T08:35:00.981Z,32.17
2022-08-09T08:36:03.858Z,32.35
2022-08-09T08:37:01.249Z,32.26
2022-08-09T08:38:04.697Z,32.17
2022-08-09T08:39:00.981Z,32.17
2022-08-09T08:40:01.025Z,32.17
2022-08-09T08:41:01.802Z,32.35
2022-08-09T08:42:00.979Z,32.35
2022-08-09T08:43:00.984Z,32.55
2022-08-09T08:44:03.514Z,32.35
2022-08-09T08:45:00.982Z,32.26
2022-08-09T08:46:24.985Z,32.35
2022-08-09T08:47:04.732Z,32.45
2022-08-09T08:48:00.984Z,32.35
2022-08-09T08:49:00.985Z,32.35
2022-08-09T08:50:02.643Z,32.35
2022-08-09T08:51:00.988Z,32.45
2022-08-09T08:52:04.030Z,32.35
2022-08-09T08:53:01.110Z,32.35
2022-08-09T08:54:03.945Z,32.26
2022-08-09T08:55:01.346Z,32.45
2022-08-09T08:56:00.988Z,32.35
2022-08-09T08:57:00.990Z,32.26
2022-08-09T08:58:00.994Z,32.45
2022-08-09T08:59:00.993Z,32.65
2022-08-09T09:00:00.995Z,32.26
2022-08-09T09:01:01.112Z,32.45
2022-08-09T09:02:01.057Z,32.65
2022-08-09T09:03:11.102Z,32.45
2022-08-09T09:04:01.056Z,32.35
2022-08-09T09:05:06.088Z,32.45
2022-08-09T09:06:05.112Z,32.45
2022-08-09T09:07:00.998Z,32.55
2022-08-09T09:08:00.998Z,32.45
2022-08-09T09:09:00.999Z,32.45
2022-08-09T09:10:04.652Z,32.45
2022-08-09T09:11:01.021Z,32.45
2022-08-09T09:12:01.028Z,32.75
2022-08-09T09:13:01.000Z,32.55
2022-08-09T09:14:01.000Z,32.35
2022-08-09T09:15:01.003Z,32.65
2022-08-09T09:16:01.002Z,32.35
2022-08-09T09:17:01.004Z,32.55
2022-08-09T09:18:01.003Z,32.55
2022-08-09T09:19:37.389Z,32.75
2022-08-09T09:20:01.193Z,32.55
2022-08-09T09:21:01.007Z,32.35
2022-08-09T09:22:03.746Z,32.35
2022-08-09T09:23:02.257Z,32.35
2022-08-09T09:24:04.667Z,32.26
2022-08-09T09:26:01.188Z,32.26
2022-08-09T09:26:12.267Z,32.35
2022-08-09T09:27:01.011Z,32.26
2022-08-09T09:28:06.344Z,32.35
2022-08-09T09:29:04.032Z,32.35
2022-08-09T09:30:14.008Z,32.26
2022-08-09T09:31:01.014Z,32.26
2022-08-09T09:32:06.632Z,32.35
2022-08-09T09:33:01.014Z,32.17
2022-08-09T09:34:01.015Z,32.26
2022-08-09T09:35:01.018Z,32.17
2022-08-09T09:36:03.680Z,32.35
2022-08-09T09:37:01.017Z,32.45
2022-08-09T09:38:01.016Z,32.35
2022-08-09T09:39:01.020Z,32.65
2022-08-09T09:40:02.877Z,32.35
2022-08-09T09:41:01.020Z,32.35
2022-08-09T09:42:01.019Z,32.35
2022-08-09T09:43:01.021Z,32.26
2022-08-09T09:44:11.870Z,32.26
2022-08-09T09:45:01.021Z,32.35
2022-08-09T09:47:01.024Z,32.26
2022-08-09T09:48:01.024Z,32.07
2022-08-09T09:49:01.025Z,31.97
2022-08-09T09:50:15.075Z,31.87
2022-08-09T09:51:01.028Z,32.17
2022-08-09T09:52:01.026Z,32.17
2022-08-09T09:53:01.187Z,32.26
2022-08-09T09:54:05.550Z,32.17
2022-08-09T09:55:01.030Z,32.17
2022-08-09T09:56:04.372Z,32.26
2022-08-09T09:58:04.183Z,32.35
2022-08-09T09:58:15.669Z,32.35
2022-08-09T09:59:01.031Z,32.45
2022-08-09T10:00:01.033Z,32.45
2022-08-09T10:01:01.032Z,32.45
2022-08-09T10:02:01.034Z,32.35
2022-08-09T10:03:01.061Z,32.07
2022-08-09T10:04:04.377Z,32.17
2022-08-09T10:05:01.041Z,32.26
2022-08-09T10:06:04.897Z,32.17
2022-08-09T10:07:03.497Z,32.07
2022-08-09T10:08:27.066Z,32.26
2022-08-09T10:09:01.037Z,32.07
2022-08-09T10:10:03.228Z,32.26
2022-08-09T10:11:06.945Z,32.07
2022-08-09T10:12:11.878Z,31.97
2022-08-09T10:13:01.040Z,31.87
2022-08-09T10:14:01.041Z,31.87
2022-08-09T10:15:01.043Z,31.77
2022-08-09T10:16:54.892Z,31.77
2022-08-09T10:17:11.451Z,31.77
2022-08-09T10:18:01.044Z,31.68
2022-08-09T10:19:01.046Z,31.48
2022-08-09T10:20:01.051Z,31.77
2022-08-09T10:21:01.061Z,32.94
2022-08-09T10:22:01.045Z,32.26
2022-08-09T10:23:01.200Z,31.97
2022-08-09T10:24:01.056Z,31.77
2022-08-09T10:25:03.366Z,31.48
2022-08-09T10:26:05.971Z,31.38
2022-08-09T10:27:01.050Z,31.38
2022-08-09T10:28:01.050Z,31.48
2022-08-09T10:29:22.674Z,31.38
2022-08-09T10:31:15.597Z,31.38
2022-08-09T10:33:01.054Z,31.48
2022-08-09T10:34:10.128Z,31.38
2022-08-09T10:35:01.056Z,31.10
2022-08-09T10:36:02.405Z,31.38
2022-08-09T10:37:01.056Z,31.38
2022-08-09T10:38:01.056Z,31.29
2022-08-09T10:39:01.058Z,31.29
2022-08-09T10:40:01.091Z,31.29
2022-08-09T10:41:01.106Z,31.48
2022-08-09T10:42:01.059Z,31.38
2022-08-09T10:43:01.677Z,31.29
2022-08-09T10:44:02.339Z,31.29
2022-08-09T10:45:01.314Z,31.29
2022-08-09T10:46:02.107Z,31.48
2022-08-09T10:47:03.996Z,31.29
2022-08-09T10:48:17.453Z,31.10
2022-08-09T10:49:01.063Z,31.29
2022-08-09T10:50:01.064Z,31.29
2022-08-09T10:51:01.066Z,31.10
2022-08-09T10:52:01.066Z,31.10
2022-08-09T10:53:01.065Z,31.29
2022-08-09T10:54:04.688Z,31.29
2022-08-09T10:55:01.069Z,31.29
2022-08-09T10:56:01.070Z,31.29
2022-08-09T10:57:01.068Z,31.10
2022-08-09T10:58:01.071Z,31.10
2022-08-09T10:59:01.196Z,31.19
2022-08-09T11:00:01.596Z,31.10
2022-08-09T11:03:02.837Z,31.10
2022-08-09T11:03:15.112Z,31.29
2022-08-09T11:03:15.527Z,31.10
2022-08-09T11:04:03.627Z,31.10
2022-08-09T11:05:01.098Z,31.10
2022-08-09T11:06:01.195Z,31.19
2022-08-09T11:07:01.539Z,31.10
2022-08-09T11:08:01.075Z,31.19
2022-08-09T11:09:15.863Z,31.19
2022-08-09T11:10:01.082Z,31.10
2022-08-09T11:11:08.934Z,31.10
2022-08-09T11:12:01.078Z,31.10
2022-08-09T11:13:01.080Z,31.29
2022-08-09T11:14:01.079Z,31.00
2022-08-09T11:15:01.081Z,30.71
2022-08-09T11:16:04.670Z,30.80
2022-08-09T11:17:01.090Z,31.10
2022-08-09T11:18:03.803Z,30.80
2022-08-09T11:19:01.085Z,30.90
2022-08-09T11:20:11.802Z,30.80
2022-08-09T11:21:01.086Z,30.90
2022-08-09T11:22:10.442Z,30.80
2022-08-09T11:23:01.086Z,31.29
2022-08-09T11:24:01.086Z,30.90
2022-08-09T11:25:01.087Z,31.29
2022-08-09T11:26:01.813Z,31.00
2022-08-09T11:27:06.617Z,31.29
2022-08-09T11:28:05.224Z,30.80
2022-08-09T11:29:01.089Z,30.71
2022-08-09T11:30:06.119Z,30.71
2022-08-09T11:31:01.091Z,30.80
2022-08-09T11:32:01.096Z,30.71
2022-08-09T11:33:01.098Z,30.90
2022-08-09T11:34:01.095Z,31.29
2022-08-09T11:35:01.095Z,30.80
2022-08-09T11:36:01.103Z,30.71
2022-08-09T11:37:01.095Z,31.19
2022-08-09T11:38:01.096Z,31.10
2022-08-09T11:39:01.097Z,30.80
2022-08-09T11:40:01.177Z,30.71
2022-08-09T11:41:01.099Z,30.71
2022-08-09T11:42:01.099Z,30.80
2022-08-09T11:43:01.100Z,30.71
2022-08-09T11:44:01.101Z,30.80
2022-08-09T11:45:01.102Z,30.80
2022-08-09T11:46:01.105Z,30.61
2022-08-09T11:47:01.110Z,30.71
2022-08-09T11:48:08.145Z,30.80
2022-08-09T11:49:05.429Z,30.61
2022-08-09T11:50:53.869Z,30.80
2022-08-09T11:52:48.640Z,30.80
2022-08-09T11:53:04.081Z,30.90
2022-08-09T11:53:21.345Z,30.61
2022-08-09T11:54:04.193Z,30.80
2022-08-09T11:55:01.108Z,30.90
2022-08-09T11:56:02.883Z,30.71
2022-08-09T11:57:01.109Z,31.19
2022-08-09T11:58:02.717Z,31.29
2022-08-09T11:59:01.112Z,30.71
2022-08-09T12:00:01.112Z,31.00
2022-08-09T12:01:01.111Z,30.90
2022-08-09T12:02:34.697Z,30.90
2022-08-09T12:03:31.827Z,31.00
2022-08-09T12:04:01.282Z,31.00
2022-08-09T12:05:01.167Z,31.00
2022-08-09T12:06:01.115Z,30.90
2022-08-09T12:07:01.116Z,30.80
2022-08-09T12:08:01.121Z,31.00
2022-08-09T12:09:01.414Z,31.00
2022-08-09T12:10:02.176Z,31.00
2022-08-09T12:11:01.118Z,30.90
2022-08-09T12:12:02.389Z,31.00
2022-08-09T12:13:03.608Z,30.80
2022-08-09T12:14:07.824Z,30.51
2022-08-09T12:15:07.882Z,30.61
2022-08-09T12:16:01.123Z,30.61
2022-08-09T12:17:01.123Z,30.51
2022-08-09T12:18:01.124Z,30.61
2022-08-09T12:19:01.123Z,30.22
2022-08-09T12:20:01.127Z,30.32
2022-08-09T12:21:02.467Z,30.12
2022-08-09T12:22:01.126Z,30.41
2022-08-09T12:23:01.232Z,30.33
2022-08-09T12:24:08.847Z,30.52
2022-08-09T12:25:01.127Z,30.14
2022-08-09T12:26:01.129Z,30.43
2022-08-09T12:29:10.640Z,30.12
2022-08-09T12:29:11.258Z,30.22
2022-08-09T12:29:29.495Z,30.22
2022-08-09T12:30:36.800Z,30.12
2022-08-09T12:31:01.132Z,30.22
2022-08-09T12:32:02.107Z,29.93
2022-08-09T12:33:01.136Z,30.24
2022-08-09T12:34:01.598Z,30.22
2022-08-09T12:35:02.916Z,29.85
2022-08-09T12:36:01.138Z,29.75
2022-08-09T12:37:21.466Z,30.02
2022-08-09T12:38:01.140Z,30.04
2022-08-09T12:39:01.142Z,30.02
2022-08-09T12:40:01.393Z,29.94
2022-08-09T12:41:01.140Z,29.85
2022-08-09T12:42:01.140Z,30.04
2022-08-09T12:43:01.140Z,30.02
2022-08-09T12:44:06.739Z,29.75
2022-08-09T12:45:01.141Z,29.74
2022-08-09T12:46:01.143Z,29.75
2022-08-09T12:47:01.144Z,29.74
2022-08-09T12:48:01.146Z,29.83
2022-08-09T12:49:01.147Z,29.65
2022-08-09T12:50:01.181Z,29.65
2022-08-09T12:51:03.935Z,30.02
2022-08-09T12:52:03.462Z,29.54
2022-08-09T12:53:09.130Z,30.14
2022-08-09T12:54:01.150Z,29.54
2022-08-09T12:56:11.802Z,29.35